sensor_id;sensor_type;location;lat;lon;timestamp;temperature;humidity
48686;DHT22;34485;51.536;3.816;2024-02-15T00:00:28;11.70;99.90
48686;DHT22;34485;51.536;3.816;2024-02-15T00:02:54;11.70;99.90
48686;DHT22;34485;51.536;3.816;2024-02-15T00:05:20;11.70;99.90
48686;DHT22;34485;51.536;3.816;2024-02-15T00:07:45;11.80;99.90
48686;DHT22;34485;51.536;3.816;2024-02-15T00:10:14;11.80;99.90
48686;DHT22;34485;51.536;3.816;2024-02-15T00:12:40;11.80;99.90
48686;DHT22;34485;51.536;3.816;2024-02-15T00:15:06;11.80;99.90
48686;DHT22;34485;51.536;3.816;2024-02-15T00:17:32;11.80;99.90
48686;DHT22;34485;51.536;3.816;2024-02-15T00:19:58;11.80;99.90
48686;DHT22;34485;51.536;3.816;2024-02-15T00:22:25;11.90;99.90
48686;DHT22;34485;51.536;3.816;2024-02-15T00:24:51;11.90;99.90
48686;DHT22;34485;51.536;3.816;2024-02-15T00:27:17;12.00;99.90
48686;DHT22;34485;51.536;3.816;2024-02-15T00:29:42;12.00;99.90
48686;DHT22;34485;51.536;3.816;2024-02-15T00:32:09;11.90;99.90
48686;DHT22;34485;51.536;3.816;2024-02-15T00:34:36;12.00;99.90
48686;DHT22;34485;51.536;3.816;2024-02-15T00:37:04;12.00;99.90
48686;DHT22;34485;51.536;3.816;2024-02-15T00:39:30;12.00;99.90
48686;DHT22;34485;51.536;3.816;2024-02-15T00:41:58;12.00;99.90
48686;DHT22;34485;51.536;3.816;2024-02-15T00:44:26;12.00;99.90
48686;DHT22;34485;51.536;3.816;2024-02-15T00:46:52;12.10;99.90
48686;DHT22;34485;51.536;3.816;2024-02-15T00:49:17;12.00;99.90
48686;DHT22;34485;51.536;3.816;2024-02-15T00:51:46;12.00;99.90
48686;DHT22;34485;51.536;3.816;2024-02-15T00:54:12;12.00;99.90
48686;DHT22;34485;51.536;3.816;2024-02-15T00:56:38;12.10;99.90
48686;DHT22;34485;51.536;3.816;2024-02-15T00:59:04;12.10;99.90
48686;DHT22;34485;51.536;3.816;2024-02-15T01:01:30;12.00;99.90
48686;DHT22;34485;51.536;3.816;2024-02-15T01:03:56;12.00;99.90
48686;DHT22;34485;51.536;3.816;2024-02-15T01:06:22;12.10;99.90
48686;DHT22;34485;51.536;3.816;2024-02-15T01:08:47;12.10;99.90
48686;DHT22;34485;51.536;3.816;2024-02-15T01:11:13;12.10;99.90
48686;DHT22;34485;51.536;3.816;2024-02-15T01:13:39;12.10;99.90
48686;DHT22;34485;51.536;3.816;2024-02-15T01:16:05;12.10;99.90
48686;DHT22;34485;51.536;3.816;2024-02-15T01:18:31;12.10;99.90
48686;DHT22;34485;51.536;3.816;2024-02-15T01:20:57;12.10;99.90
48686;DHT22;34485;51.536;3.816;2024-02-15T01:23:23;12.10;99.90
48686;DHT22;34485;51.536;3.816;2024-02-15T01:25:49;12.10;99.90
48686;DHT22;34485;51.536;3.816;2024-02-15T01:28:15;12.20;99.90
48686;DHT22;34485;51.536;3.816;2024-02-15T01:30:40;12.10;99.90
48686;DHT22;34485;51.536;3.816;2024-02-15T01:33:09;12.10;99.90
48686;DHT22;34485;51.536;3.816;2024-02-15T01:35:36;12.10;99.90
48686;DHT22;34485;51.536;3.816;2024-02-15T01:38:02;12.10;99.90
48686;DHT22;34485;51.536;3.816;2024-02-15T01:40:28;12.20;99.90
48686;DHT22;34485;51.536;3.816;2024-02-15T01:42:54;12.10;99.90
48686;DHT22;34485;51.536;3.816;2024-02-15T01:45:20;12.10;99.90
48686;DHT22;34485;51.536;3.816;2024-02-15T01:47:48;12.20;99.90
48686;DHT22;34485;51.536;3.816;2024-02-15T01:50:14;12.20;99.90
48686;DHT22;34485;51.536;3.816;2024-02-15T01:52:43;12.20;99.90
48686;DHT22;34485;51.536;3.816;2024-02-15T01:55:13;12.20;99.90
48686;DHT22;34485;51.536;3.816;2024-02-15T01:57:40;12.20;99.90
48686;DHT22;34485;51.536;3.816;2024-02-15T02:00:09;12.10;99.90
48686;DHT22;34485;51.536;3.816;2024-02-15T02:02:39;12.10;99.90
48686;DHT22;34485;51.536;3.816;2024-02-15T02:05:07;12.10;99.90
48686;DHT22;34485;51.536;3.816;2024-02-15T02:07:33;12.10;99.90
48686;DHT22;34485;51.536;3.816;2024-02-15T02:09:59;12.10;99.90
48686;DHT22;34485;51.536;3.816;2024-02-15T02:12:25;12.10;99.90
48686;DHT22;34485;51.536;3.816;2024-02-15T02:14:53;12.10;99.90
48686;DHT22;34485;51.536;3.816;2024-02-15T02:17:19;12.00;99.90
48686;DHT22;34485;51.536;3.816;2024-02-15T02:19:45;12.10;99.90
48686;DHT22;34485;51.536;3.816;2024-02-15T02:22:11;12.00;99.90
48686;DHT22;34485;51.536;3.816;2024-02-15T02:25:06;12.00;99.90
48686;DHT22;34485;51.536;3.816;2024-02-15T02:27:34;12.00;99.90
48686;DHT22;34485;51.536;3.816;2024-02-15T02:30:00;12.00;99.90
48686;DHT22;34485;51.536;3.816;2024-02-15T02:32:26;12.00;99.90
48686;DHT22;34485;51.536;3.816;2024-02-15T02:34:52;12.00;99.90
48686;DHT22;34485;51.536;3.816;2024-02-15T02:37:26;12.00;99.90
48686;DHT22;34485;51.536;3.816;2024-02-15T02:39:51;12.00;99.90
48686;DHT22;34485;51.536;3.816;2024-02-15T02:42:17;12.00;99.90
48686;DHT22;34485;51.536;3.816;2024-02-15T02:44:43;12.00;99.90
48686;DHT22;34485;51.536;3.816;2024-02-15T02:47:10;12.00;99.90
48686;DHT22;34485;51.536;3.816;2024-02-15T02:49:36;12.00;99.90
48686;DHT22;34485;51.536;3.816;2024-02-15T02:52:02;12.00;99.90
48686;DHT22;34485;51.536;3.816;2024-02-15T02:54:28;12.00;99.90
48686;DHT22;34485;51.536;3.816;2024-02-15T02:56:55;12.00;99.90
48686;DHT22;34485;51.536;3.816;2024-02-15T02:59:20;12.10;99.90
48686;DHT22;34485;51.536;3.816;2024-02-15T03:01:46;12.00;99.90
48686;DHT22;34485;51.536;3.816;2024-02-15T03:04:14;12.00;99.90
48686;DHT22;34485;51.536;3.816;2024-02-15T03:06:42;12.00;99.90
48686;DHT22;34485;51.536;3.816;2024-02-15T03:09:08;12.00;99.90
48686;DHT22;34485;51.536;3.816;2024-02-15T03:11:35;12.00;99.90
48686;DHT22;34485;51.536;3.816;2024-02-15T03:14:01;12.00;99.90
48686;DHT22;34485;51.536;3.816;2024-02-15T03:16:33;12.00;99.90
48686;DHT22;34485;51.536;3.816;2024-02-15T03:19:01;12.00;99.90
48686;DHT22;34485;51.536;3.816;2024-02-15T03:21:28;12.00;99.90
48686;DHT22;34485;51.536;3.816;2024-02-15T03:23:54;12.00;99.90
48686;DHT22;34485;51.536;3.816;2024-02-15T03:26:29;12.00;99.90
48686;DHT22;34485;51.536;3.816;2024-02-15T03:28:56;11.90;99.90
48686;DHT22;34485;51.536;3.816;2024-02-15T03:31:22;11.90;99.90
48686;DHT22;34485;51.536;3.816;2024-02-15T03:33:47;11.90;99.90
48686;DHT22;34485;51.536;3.816;2024-02-15T03:36:16;11.90;99.90
48686;DHT22;34485;51.536;3.816;2024-02-15T03:38:45;11.90;99.90
48686;DHT22;34485;51.536;3.816;2024-02-15T03:41:12;12.00;99.90
48686;DHT22;34485;51.536;3.816;2024-02-15T03:43:37;11.90;99.90
48686;DHT22;34485;51.536;3.816;2024-02-15T03:46:04;11.90;99.90
48686;DHT22;34485;51.536;3.816;2024-02-15T03:48:29;12.00;99.90
48686;DHT22;34485;51.536;3.816;2024-02-15T03:50:57;12.00;99.90
48686;DHT22;34485;51.536;3.816;2024-02-15T03:53:24;11.90;99.90
48686;DHT22;34485;51.536;3.816;2024-02-15T03:55:49;11.90;99.90
48686;DHT22;34485;51.536;3.816;2024-02-15T03:58:19;11.90;99.90
48686;DHT22;34485;51.536;3.816;2024-02-15T04:00:45;11.90;99.90
48686;DHT22;34485;51.536;3.816;2024-02-15T04:03:11;11.90;99.90
48686;DHT22;34485;51.536;3.816;2024-02-15T04:05:36;11.90;99.90
48686;DHT22;34485;51.536;3.816;2024-02-15T04:08:02;11.90;99.90
48686;DHT22;34485;51.536;3.816;2024-02-15T04:10:28;11.90;99.90
48686;DHT22;34485;51.536;3.816;2024-02-15T04:12:54;12.00;99.90
48686;DHT22;34485;51.536;3.816;2024-02-15T04:15:19;11.90;99.90
48686;DHT22;34485;51.536;3.816;2024-02-15T04:17:46;11.90;99.90
48686;DHT22;34485;51.536;3.816;2024-02-15T04:20:12;11.90;99.90
48686;DHT22;34485;51.536;3.816;2024-02-15T04:22:39;11.90;99.90
48686;DHT22;34485;51.536;3.816;2024-02-15T04:25:08;11.90;99.90
48686;DHT22;34485;51.536;3.816;2024-02-15T04:27:41;11.90;99.90
48686;DHT22;34485;51.536;3.816;2024-02-15T04:30:07;11.90;99.90
48686;DHT22;34485;51.536;3.816;2024-02-15T04:32:33;11.90;99.90
48686;DHT22;34485;51.536;3.816;2024-02-15T04:35:00;11.90;99.90
48686;DHT22;34485;51.536;3.816;2024-02-15T04:37:26;11.90;99.90
48686;DHT22;34485;51.536;3.816;2024-02-15T04:39:54;11.90;99.90
48686;DHT22;34485;51.536;3.816;2024-02-15T04:42:21;11.90;99.90
48686;DHT22;34485;51.536;3.816;2024-02-15T04:44:46;11.80;99.90
48686;DHT22;34485;51.536;3.816;2024-02-15T04:47:12;11.90;99.90
48686;DHT22;34485;51.536;3.816;2024-02-15T04:49:38;11.90;99.90
48686;DHT22;34485;51.536;3.816;2024-02-15T04:52:04;11.90;99.90
48686;DHT22;34485;51.536;3.816;2024-02-15T04:54:30;11.90;99.90
48686;DHT22;34485;51.536;3.816;2024-02-15T04:56:58;11.90;99.90
48686;DHT22;34485;51.536;3.816;2024-02-15T04:59:23;11.90;99.90
48686;DHT22;34485;51.536;3.816;2024-02-15T05:01:54;11.90;99.90
48686;DHT22;34485;51.536;3.816;2024-02-15T05:04:22;11.90;99.90
48686;DHT22;34485;51.536;3.816;2024-02-15T05:06:50;11.90;99.90
48686;DHT22;34485;51.536;3.816;2024-02-15T05:09:16;11.90;99.90
48686;DHT22;34485;51.536;3.816;2024-02-15T05:11:44;11.90;99.90
48686;DHT22;34485;51.536;3.816;2024-02-15T05:14:13;11.90;99.90
48686;DHT22;34485;51.536;3.816;2024-02-15T05:16:47;11.90;99.90
48686;DHT22;34485;51.536;3.816;2024-02-15T05:19:17;11.90;99.90
48686;DHT22;34485;51.536;3.816;2024-02-15T05:21:44;11.90;99.90
48686;DHT22;34485;51.536;3.816;2024-02-15T05:24:16;11.90;99.90
48686;DHT22;34485;51.536;3.816;2024-02-15T05:26:44;11.90;99.90
48686;DHT22;34485;51.536;3.816;2024-02-15T05:29:12;11.90;99.90
48686;DHT22;34485;51.536;3.816;2024-02-15T05:31:38;11.90;99.90
48686;DHT22;34485;51.536;3.816;2024-02-15T05:34:06;11.90;99.90
48686;DHT22;34485;51.536;3.816;2024-02-15T05:36:37;11.90;99.90
48686;DHT22;34485;51.536;3.816;2024-02-15T05:39:03;11.90;99.90
48686;DHT22;34485;51.536;3.816;2024-02-15T05:41:30;11.80;99.90
48686;DHT22;34485;51.536;3.816;2024-02-15T05:43:57;11.90;99.90
48686;DHT22;34485;51.536;3.816;2024-02-15T05:46:23;11.90;99.90
48686;DHT22;34485;51.536;3.816;2024-02-15T05:48:50;11.90;99.90
48686;DHT22;34485;51.536;3.816;2024-02-15T05:51:17;11.90;99.90
48686;DHT22;34485;51.536;3.816;2024-02-15T05:53:43;11.90;99.90
48686;DHT22;34485;51.536;3.816;2024-02-15T05:56:09;11.90;99.90
48686;DHT22;34485;51.536;3.816;2024-02-15T05:58:39;11.90;99.90
48686;DHT22;34485;51.536;3.816;2024-02-15T06:01:05;11.80;99.90
48686;DHT22;34485;51.536;3.816;2024-02-15T06:03:33;11.90;99.90
48686;DHT22;34485;51.536;3.816;2024-02-15T06:06:00;11.90;99.90
48686;DHT22;34485;51.536;3.816;2024-02-15T06:08:30;11.90;99.90
48686;DHT22;34485;51.536;3.816;2024-02-15T06:10:56;11.90;99.90
48686;DHT22;34485;51.536;3.816;2024-02-15T06:13:25;11.90;99.90
48686;DHT22;34485;51.536;3.816;2024-02-15T06:15:52;11.90;99.90
48686;DHT22;34485;51.536;3.816;2024-02-15T06:18:27;11.90;99.90
48686;DHT22;34485;51.536;3.816;2024-02-15T06:20:55;11.90;99.90
48686;DHT22;34485;51.536;3.816;2024-02-15T06:23:23;11.90;99.90
48686;DHT22;34485;51.536;3.816;2024-02-15T06:25:51;11.90;99.90
48686;DHT22;34485;51.536;3.816;2024-02-15T06:28:21;11.80;99.90
48686;DHT22;34485;51.536;3.816;2024-02-15T06:31:07;11.80;99.90
48686;DHT22;34485;51.536;3.816;2024-02-15T06:33:51;11.90;99.90
48686;DHT22;34485;51.536;3.816;2024-02-15T06:36:49;11.90;99.90
48686;DHT22;34485;51.536;3.816;2024-02-15T06:39:34;11.90;99.90
48686;DHT22;34485;51.536;3.816;2024-02-15T06:42:13;11.90;99.90
48686;DHT22;34485;51.536;3.816;2024-02-15T06:44:44;11.80;99.90
48686;DHT22;34485;51.536;3.816;2024-02-15T06:47:10;11.80;99.90
48686;DHT22;34485;51.536;3.816;2024-02-15T06:49:39;11.80;99.90
48686;DHT22;34485;51.536;3.816;2024-02-15T06:52:08;11.90;99.90
48686;DHT22;34485;51.536;3.816;2024-02-15T06:54:35;11.80;99.90
48686;DHT22;34485;51.536;3.816;2024-02-15T06:57:02;11.90;99.90
48686;DHT22;34485;51.536;3.816;2024-02-15T06:59:28;11.80;99.90
48686;DHT22;34485;51.536;3.816;2024-02-15T07:01:53;11.80;99.90
48686;DHT22;34485;51.536;3.816;2024-02-15T07:04:20;11.80;99.90
48686;DHT22;34485;51.536;3.816;2024-02-15T07:06:51;11.80;99.90
48686;DHT22;34485;51.536;3.816;2024-02-15T07:09:22;11.90;99.90
48686;DHT22;34485;51.536;3.816;2024-02-15T07:11:50;11.80;99.90
48686;DHT22;34485;51.536;3.816;2024-02-15T07:14:15;11.80;99.90
48686;DHT22;34485;51.536;3.816;2024-02-15T07:16:48;11.80;99.90
48686;DHT22;34485;51.536;3.816;2024-02-15T07:19:14;11.80;99.90
48686;DHT22;34485;51.536;3.816;2024-02-15T07:21:41;11.80;99.90
48686;DHT22;34485;51.536;3.816;2024-02-15T07:24:07;11.80;99.90
48686;DHT22;34485;51.536;3.816;2024-02-15T07:26:32;11.90;99.90
48686;DHT22;34485;51.536;3.816;2024-02-15T07:29:00;11.90;99.90
48686;DHT22;34485;51.536;3.816;2024-02-15T07:31:29;11.90;99.90
48686;DHT22;34485;51.536;3.816;2024-02-15T07:33:55;11.90;99.90
48686;DHT22;34485;51.536;3.816;2024-02-15T07:36:22;11.90;99.90
48686;DHT22;34485;51.536;3.816;2024-02-15T07:38:49;11.90;99.90
48686;DHT22;34485;51.536;3.816;2024-02-15T07:41:16;11.90;99.90
48686;DHT22;34485;51.536;3.816;2024-02-15T07:43:43;11.90;99.90
48686;DHT22;34485;51.536;3.816;2024-02-15T07:46:13;11.90;99.90
48686;DHT22;34485;51.536;3.816;2024-02-15T07:48:39;11.90;99.90
48686;DHT22;34485;51.536;3.816;2024-02-15T07:51:09;11.90;99.90
48686;DHT22;34485;51.536;3.816;2024-02-15T07:53:37;11.90;99.90
48686;DHT22;34485;51.536;3.816;2024-02-15T07:56:02;11.90;99.90
48686;DHT22;34485;51.536;3.816;2024-02-15T07:58:28;11.90;99.90
48686;DHT22;34485;51.536;3.816;2024-02-15T08:00:54;12.00;99.90
48686;DHT22;34485;51.536;3.816;2024-02-15T08:03:20;12.00;99.90
48686;DHT22;34485;51.536;3.816;2024-02-15T08:05:45;12.00;99.90
48686;DHT22;34485;51.536;3.816;2024-02-15T08:08:11;12.00;99.90
48686;DHT22;34485;51.536;3.816;2024-02-15T08:10:37;12.00;99.90
48686;DHT22;34485;51.536;3.816;2024-02-15T08:13:03;12.00;99.90
48686;DHT22;34485;51.536;3.816;2024-02-15T08:15:29;12.00;99.90
48686;DHT22;34485;51.536;3.816;2024-02-15T08:17:54;12.00;99.90
48686;DHT22;34485;51.536;3.816;2024-02-15T08:20:20;12.00;99.90
48686;DHT22;34485;51.536;3.816;2024-02-15T08:22:49;12.10;99.90
48686;DHT22;34485;51.536;3.816;2024-02-15T08:25:15;12.10;99.90
48686;DHT22;34485;51.536;3.816;2024-02-15T08:27:44;12.10;99.90
48686;DHT22;34485;51.536;3.816;2024-02-15T08:30:13;12.10;99.90
48686;DHT22;34485;51.536;3.816;2024-02-15T08:32:39;12.20;99.90
48686;DHT22;34485;51.536;3.816;2024-02-15T08:35:10;12.20;99.90
48686;DHT22;34485;51.536;3.816;2024-02-15T08:37:37;12.20;99.90
48686;DHT22;34485;51.536;3.816;2024-02-15T08:40:05;12.20;99.90
48686;DHT22;34485;51.536;3.816;2024-02-15T08:42:38;12.20;99.90
48686;DHT22;34485;51.536;3.816;2024-02-15T08:45:04;12.20;99.90
48686;DHT22;34485;51.536;3.816;2024-02-15T08:47:30;12.20;99.90
48686;DHT22;34485;51.536;3.816;2024-02-15T08:49:56;12.30;99.90
48686;DHT22;34485;51.536;3.816;2024-02-15T08:52:24;12.30;99.90
48686;DHT22;34485;51.536;3.816;2024-02-15T08:54:52;12.40;99.90
48686;DHT22;34485;51.536;3.816;2024-02-15T08:57:18;12.50;99.90
48686;DHT22;34485;51.536;3.816;2024-02-15T08:59:44;12.50;99.90
48686;DHT22;34485;51.536;3.816;2024-02-15T09:02:10;12.50;99.90
48686;DHT22;34485;51.536;3.816;2024-02-15T09:04:35;12.60;99.90
48686;DHT22;34485;51.536;3.816;2024-02-15T09:07:01;12.60;99.90
48686;DHT22;34485;51.536;3.816;2024-02-15T09:09:29;12.60;99.90
48686;DHT22;34485;51.536;3.816;2024-02-15T09:11:56;12.60;99.90
48686;DHT22;34485;51.536;3.816;2024-02-15T09:14:22;12.70;99.90
48686;DHT22;34485;51.536;3.816;2024-02-15T09:16:48;12.80;99.90
48686;DHT22;34485;51.536;3.816;2024-02-15T09:19:14;12.90;99.90
48686;DHT22;34485;51.536;3.816;2024-02-15T09:21:39;13.00;99.90
48686;DHT22;34485;51.536;3.816;2024-02-15T09:24:05;13.00;99.90
48686;DHT22;34485;51.536;3.816;2024-02-15T09:26:31;13.00;99.90
48686;DHT22;34485;51.536;3.816;2024-02-15T09:28:57;13.00;99.90
48686;DHT22;34485;51.536;3.816;2024-02-15T09:31:23;13.00;99.90
48686;DHT22;34485;51.536;3.816;2024-02-15T09:33:50;13.10;99.90
48686;DHT22;34485;51.536;3.816;2024-02-15T09:36:16;13.20;99.90
48686;DHT22;34485;51.536;3.816;2024-02-15T09:38:42;13.20;99.90
48686;DHT22;34485;51.536;3.816;2024-02-15T09:41:07;13.20;99.90
48686;DHT22;34485;51.536;3.816;2024-02-15T09:43:35;13.30;99.90
48686;DHT22;34485;51.536;3.816;2024-02-15T09:46:00;13.30;99.90
48686;DHT22;34485;51.536;3.816;2024-02-15T09:48:30;13.30;99.90
48686;DHT22;34485;51.536;3.816;2024-02-15T09:50:57;13.40;99.90
48686;DHT22;34485;51.536;3.816;2024-02-15T09:53:24;13.40;99.90
48686;DHT22;34485;51.536;3.816;2024-02-15T09:55:55;13.50;99.90
48686;DHT22;34485;51.536;3.816;2024-02-15T09:58:21;13.50;99.90
48686;DHT22;34485;51.536;3.816;2024-02-15T10:00:49;13.60;99.90
48686;DHT22;34485;51.536;3.816;2024-02-15T10:03:18;13.60;99.90
48686;DHT22;34485;51.536;3.816;2024-02-15T10:05:48;13.60;99.90
48686;DHT22;34485;51.536;3.816;2024-02-15T10:08:15;13.70;99.90
48686;DHT22;34485;51.536;3.816;2024-02-15T10:10:41;13.70;99.90
48686;DHT22;34485;51.536;3.816;2024-02-15T10:13:12;13.80;99.90
48686;DHT22;34485;51.536;3.816;2024-02-15T10:15:39;13.90;99.90
48686;DHT22;34485;51.536;3.816;2024-02-15T10:18:09;13.90;99.90
48686;DHT22;34485;51.536;3.816;2024-02-15T10:20:40;14.00;99.90
48686;DHT22;34485;51.536;3.816;2024-02-15T10:23:10;14.10;99.90
48686;DHT22;34485;51.536;3.816;2024-02-15T10:25:40;14.10;99.90
48686;DHT22;34485;51.536;3.816;2024-02-15T10:28:11;14.10;99.90
48686;DHT22;34485;51.536;3.816;2024-02-15T10:30:41;14.20;99.90
48686;DHT22;34485;51.536;3.816;2024-02-15T10:33:27;14.30;99.90
48686;DHT22;34485;51.536;3.816;2024-02-15T10:36:06;14.30;99.90
48686;DHT22;34485;51.536;3.816;2024-02-15T10:38:34;14.40;99.90
48686;DHT22;34485;51.536;3.816;2024-02-15T10:41:05;14.50;99.90
48686;DHT22;34485;51.536;3.816;2024-02-15T10:43:33;14.50;99.90
48686;DHT22;34485;51.536;3.816;2024-02-15T10:46:00;14.50;99.90
48686;DHT22;34485;51.536;3.816;2024-02-15T10:48:26;14.60;99.90
48686;DHT22;34485;51.536;3.816;2024-02-15T10:50:56;14.70;99.90
48686;DHT22;34485;51.536;3.816;2024-02-15T10:53:26;14.60;99.90
48686;DHT22;34485;51.536;3.816;2024-02-15T10:56:07;14.70;99.90
48686;DHT22;34485;51.536;3.816;2024-02-15T10:58:47;14.80;99.90
48686;DHT22;34485;51.536;3.816;2024-02-15T11:04:00;15.20;99.90
48686;DHT22;34485;51.536;3.816;2024-02-15T11:08:56;15.60;99.90
48686;DHT22;34485;51.536;3.816;2024-02-15T11:11:23;15.70;99.90
48686;DHT22;34485;51.536;3.816;2024-02-15T11:13:49;15.90;99.90
48686;DHT22;34485;51.536;3.816;2024-02-15T11:19:01;16.20;99.90
48686;DHT22;34485;51.536;3.816;2024-02-15T11:21:52;16.30;99.90
48686;DHT22;34485;51.536;3.816;2024-02-15T11:24:28;16.60;99.90
48686;DHT22;34485;51.536;3.816;2024-02-15T11:26:59;16.80;99.90
48686;DHT22;34485;51.536;3.816;2024-02-15T11:29:50;16.80;99.90
48686;DHT22;34485;51.536;3.816;2024-02-15T11:35:05;17.00;99.90
48686;DHT22;34485;51.536;3.816;2024-02-15T11:40:18;16.90;99.90
48686;DHT22;34485;51.536;3.816;2024-02-15T11:42:45;16.80;99.90
48686;DHT22;34485;51.536;3.816;2024-02-15T11:45:15;16.80;99.90
48686;DHT22;34485;51.536;3.816;2024-02-15T11:47:47;16.70;99.90
48686;DHT22;34485;51.536;3.816;2024-02-15T11:50:14;16.70;99.90
48686;DHT22;34485;51.536;3.816;2024-02-15T11:52:51;16.70;99.90
48686;DHT22;34485;51.536;3.816;2024-02-15T11:55:23;16.80;99.90
48686;DHT22;34485;51.536;3.816;2024-02-15T12:00:36;16.90;99.90
48686;DHT22;34485;51.536;3.816;2024-02-15T12:03:22;16.80;99.90
48686;DHT22;34485;51.536;3.816;2024-02-15T12:06:06;16.60;99.90
48686;DHT22;34485;51.536;3.816;2024-02-15T12:08:54;16.60;99.90
48686;DHT22;34485;51.536;3.816;2024-02-15T12:11:39;16.60;99.90
48686;DHT22;34485;51.536;3.816;2024-02-15T12:14:24;16.60;99.90
48686;DHT22;34485;51.536;3.816;2024-02-15T12:17:13;16.60;99.90
48686;DHT22;34485;51.536;3.816;2024-02-15T12:20:00;16.60;99.90
48686;DHT22;34485;51.536;3.816;2024-02-15T12:22:35;16.70;99.90
48686;DHT22;34485;51.536;3.816;2024-02-15T12:25:03;16.60;99.90
48686;DHT22;34485;51.536;3.816;2024-02-15T12:27:41;16.70;99.90
48686;DHT22;34485;51.536;3.816;2024-02-15T12:30:13;16.70;99.90
48686;DHT22;34485;51.536;3.816;2024-02-15T12:32:39;16.60;99.90
48686;DHT22;34485;51.536;3.816;2024-02-15T12:35:12;16.50;99.90
48686;DHT22;34485;51.536;3.816;2024-02-15T12:37:48;16.40;99.90
48686;DHT22;34485;51.536;3.816;2024-02-15T12:40:20;16.20;99.90
48686;DHT22;34485;51.536;3.816;2024-02-15T12:42:47;16.20;99.90
48686;DHT22;34485;51.536;3.816;2024-02-15T12:45:20;16.10;99.90
48686;DHT22;34485;51.536;3.816;2024-02-15T12:47:56;16.10;99.90
48686;DHT22;34485;51.536;3.816;2024-02-15T12:50:23;16.10;99.90
48686;DHT22;34485;51.536;3.816;2024-02-15T12:52:53;16.20;99.90
48686;DHT22;34485;51.536;3.816;2024-02-15T12:55:24;16.20;99.90
48686;DHT22;34485;51.536;3.816;2024-02-15T12:57:51;16.30;99.90
48686;DHT22;34485;51.536;3.816;2024-02-15T13:00:25;16.30;99.90
48686;DHT22;34485;51.536;3.816;2024-02-15T13:02:55;16.50;99.90
48686;DHT22;34485;51.536;3.816;2024-02-15T13:05:22;16.60;99.90
48686;DHT22;34485;51.536;3.816;2024-02-15T13:07:50;16.80;99.90
48686;DHT22;34485;51.536;3.816;2024-02-15T13:10:17;16.90;99.90
48686;DHT22;34485;51.536;3.816;2024-02-15T13:12:44;17.00;99.90
48686;DHT22;34485;51.536;3.816;2024-02-15T13:15:15;17.00;99.90
48686;DHT22;34485;51.536;3.816;2024-02-15T13:17:47;17.10;99.90
48686;DHT22;34485;51.536;3.816;2024-02-15T13:20:23;17.10;99.90
48686;DHT22;34485;51.536;3.816;2024-02-15T13:23:07;17.00;99.90
48686;DHT22;34485;51.536;3.816;2024-02-15T13:25:41;17.00;99.90
48686;DHT22;34485;51.536;3.816;2024-02-15T13:28:09;17.00;99.90
48686;DHT22;34485;51.536;3.816;2024-02-15T13:30:36;17.00;99.90
48686;DHT22;34485;51.536;3.816;2024-02-15T13:33:02;17.00;99.90
48686;DHT22;34485;51.536;3.816;2024-02-15T13:35:32;17.00;99.90
48686;DHT22;34485;51.536;3.816;2024-02-15T13:37:58;17.00;99.90
48686;DHT22;34485;51.536;3.816;2024-02-15T13:40:28;16.90;99.90
48686;DHT22;34485;51.536;3.816;2024-02-15T13:42:56;16.90;99.90
48686;DHT22;34485;51.536;3.816;2024-02-15T13:45:43;16.90;99.90
48686;DHT22;34485;51.536;3.816;2024-02-15T13:48:10;17.00;99.90
48686;DHT22;34485;51.536;3.816;2024-02-15T13:50:40;17.00;99.90
48686;DHT22;34485;51.536;3.816;2024-02-15T13:53:06;17.00;99.90
48686;DHT22;34485;51.536;3.816;2024-02-15T13:55:34;17.00;99.90
48686;DHT22;34485;51.536;3.816;2024-02-15T13:58:03;17.00;99.90
48686;DHT22;34485;51.536;3.816;2024-02-15T14:00:29;16.90;99.90
48686;DHT22;34485;51.536;3.816;2024-02-15T14:02:59;16.90;99.90
48686;DHT22;34485;51.536;3.816;2024-02-15T14:05:28;16.90;99.90
48686;DHT22;34485;51.536;3.816;2024-02-15T14:07:56;16.90;99.90
48686;DHT22;34485;51.536;3.816;2024-02-15T14:10:22;16.90;99.90
48686;DHT22;34485;51.536;3.816;2024-02-15T14:12:50;17.00;99.90
48686;DHT22;34485;51.536;3.816;2024-02-15T14:15:30;17.00;99.90
48686;DHT22;34485;51.536;3.816;2024-02-15T14:17:59;16.90;99.90
48686;DHT22;34485;51.536;3.816;2024-02-15T14:20:26;16.90;99.90
48686;DHT22;34485;51.536;3.816;2024-02-15T14:22:53;16.90;99.90
48686;DHT22;34485;51.536;3.816;2024-02-15T14:25:25;16.90;99.90
48686;DHT22;34485;51.536;3.816;2024-02-15T14:27:53;16.80;99.90
48686;DHT22;34485;51.536;3.816;2024-02-15T14:30:19;16.70;99.90
48686;DHT22;34485;51.536;3.816;2024-02-15T14:33:04;16.70;99.90
48686;DHT22;34485;51.536;3.816;2024-02-15T14:35:34;16.60;99.90
48686;DHT22;34485;51.536;3.816;2024-02-15T14:38:04;16.50;99.90
48686;DHT22;34485;51.536;3.816;2024-02-15T14:40:40;16.50;99.90
48686;DHT22;34485;51.536;3.816;2024-02-15T14:43:06;16.50;99.90
48686;DHT22;34485;51.536;3.816;2024-02-15T14:45:34;16.40;99.90
48686;DHT22;34485;51.536;3.816;2024-02-15T14:48:01;16.40;99.90
48686;DHT22;34485;51.536;3.816;2024-02-15T14:50:28;16.40;99.90
48686;DHT22;34485;51.536;3.816;2024-02-15T14:52:54;16.40;99.90
48686;DHT22;34485;51.536;3.816;2024-02-15T14:55:20;16.40;99.90
48686;DHT22;34485;51.536;3.816;2024-02-15T14:57:49;16.40;99.90
48686;DHT22;34485;51.536;3.816;2024-02-15T15:00:16;16.40;99.90
48686;DHT22;34485;51.536;3.816;2024-02-15T15:02:47;16.40;99.90
48686;DHT22;34485;51.536;3.816;2024-02-15T15:05:13;16.40;99.90
48686;DHT22;34485;51.536;3.816;2024-02-15T15:07:58;16.40;99.90
48686;DHT22;34485;51.536;3.816;2024-02-15T15:10:45;16.30;99.90
48686;DHT22;34485;51.536;3.816;2024-02-15T15:13:29;16.30;99.90
48686;DHT22;34485;51.536;3.816;2024-02-15T15:15:55;16.20;99.90
48686;DHT22;34485;51.536;3.816;2024-02-15T15:18:21;16.20;99.90
48686;DHT22;34485;51.536;3.816;2024-02-15T15:20:47;16.20;99.90
48686;DHT22;34485;51.536;3.816;2024-02-15T15:23:13;16.20;99.90
48686;DHT22;34485;51.536;3.816;2024-02-15T15:25:39;16.10;99.90
48686;DHT22;34485;51.536;3.816;2024-02-15T15:28:05;16.00;99.90
48686;DHT22;34485;51.536;3.816;2024-02-15T15:30:31;16.00;99.90
48686;DHT22;34485;51.536;3.816;2024-02-15T15:32:57;15.90;99.90
48686;DHT22;34485;51.536;3.816;2024-02-15T15:35:26;15.90;99.90
48686;DHT22;34485;51.536;3.816;2024-02-15T15:37:56;15.80;99.90
48686;DHT22;34485;51.536;3.816;2024-02-15T15:40:23;15.80;99.90
48686;DHT22;34485;51.536;3.816;2024-02-15T15:42:49;15.80;99.90
48686;DHT22;34485;51.536;3.816;2024-02-15T15:45:14;15.70;99.90
48686;DHT22;34485;51.536;3.816;2024-02-15T15:47:43;15.60;99.90
48686;DHT22;34485;51.536;3.816;2024-02-15T15:50:09;15.60;99.90
48686;DHT22;34485;51.536;3.816;2024-02-15T15:52:38;15.50;99.90
48686;DHT22;34485;51.536;3.816;2024-02-15T15:55:04;15.50;99.90